Time;durP1;ratioP1;P1;durP2;ratioP2;P2;SDS_P1;SDS_P2;PMS_P1;PMS_P2;Temp;Humidity;BMP_temperature;BMP_pressure;BME280_temperature;BME280_humidity;BME280_pressure;Samples;Min_cycle;Max_cycle;Signal;HPM_P1;HPM_P2
2022/03/21 00:01:45;;;;;;;9.50;8.48;;;20.30;55.20;;;;;;4913773;28;87641;-71
2022/03/21 00:04:10;;;;;;;9.88;8.85;;;20.30;55.20;;;;;;4931026;28;87416;-69
2022/03/21 00:06:36;;;;;;;9.55;8.52;;;20.30;55.30;;;;;;4914741;28;87398;-68
2022/03/21 00:09:02;;;;;;;9.52;8.52;;;20.30;55.20;;;;;;4913134;28;87349;-71
2022/03/21 00:11:28;;;;;;;10.95;8.45;;;20.30;55.40;;;;;;4913008;28;89457;-70
2022/03/21 00:13:54;;;;;;;9.68;8.30;;;20.30;55.10;;;;;;4917801;28;88498;-69
2022/03/21 00:16:20;;;;;;;10.27;9.27;;;20.30;55.20;;;;;;4914045;28;88859;-72
2022/03/21 00:18:46;;;;;;;9.57;8.60;;;20.30;55.10;;;;;;4912491;28;87520;-71
2022/03/21 00:21:11;;;;;;;9.27;8.18;;;20.30;55.00;;;;;;4912555;28;87095;-69
2022/03/21 00:23:37;;;;;;;10.35;9.00;;;20.30;55.20;;;;;;4913413;28;88527;-69
2022/03/21 00:26:04;;;;;;;10.07;9.05;;;20.20;55.20;;;;;;4913267;28;88035;-69
2022/03/21 00:28:30;;;;;;;9.30;8.40;;;20.20;55.10;;;;;;4918505;28;87344;-69
2022/03/21 00:30:56;;;;;;;10.63;8.65;;;20.20;55.10;;;;;;4925038;28;86842;-69
2022/03/21 00:33:21;;;;;;;9.95;8.77;;;20.20;54.90;;;;;;4923851;28;87569;-69
2022/03/21 00:35:50;;;;;;;9.55;8.52;;;20.20;55.70;;;;;;4913560;28;87817;-72
2022/03/21 00:38:16;;;;;;;10.23;8.70;;;20.20;55.00;;;;;;4920604;28;88775;-72
2022/03/21 00:40:46;;;;;;;9.60;8.70;;;20.20;54.90;;;;;;4923992;28;87933;-69
2022/03/21 00:43:23;;;;;;;9.77;8.63;;;20.20;55.00;;;;;;4910509;28;90856;-69
2022/03/21 00:45:52;;;;;;;9.10;8.13;;;20.20;55.10;;;;;;4915454;28;91004;-70
2022/03/21 00:48:18;;;;;;;10.82;9.25;;;20.20;54.90;;;;;;4913068;28;87338;-68
2022/03/21 00:50:44;;;;;;;9.98;8.95;;;20.20;54.80;;;;;;4926849;28;87498;-69
2022/03/21 00:53:09;;;;;;;10.32;9.32;;;20.20;54.80;;;;;;4915990;28;88430;-71
2022/03/21 00:55:35;;;;;;;11.00;9.32;;;20.10;54.90;;;;;;4912543;28;88488;-69
2022/03/21 00:58:00;;;;;;;11.38;8.75;;;20.10;54.70;;;;;;4912062;28;87375;-69
2022/03/21 01:00:29;;;;;;;9.80;8.80;;;20.10;54.80;;;;;;4912410;28;87526;-69
2022/03/21 01:02:56;;;;;;;9.80;8.80;;;20.10;54.80;;;;;;4911245;28;89642;-69
2022/03/21 01:05:25;;;;;;;10.23;8.80;;;20.10;55.00;;;;;;4912391;28;89086;-69
2022/03/21 01:07:51;;;;;;;9.93;8.93;;;20.10;54.80;;;;;;4912681;28;88181;-69
2022/03/21 01:10:19;;;;;;;9.23;8.07;;;20.10;54.70;;;;;;4913928;28;87932;-69
2022/03/21 01:12:46;;;;;;;9.80;8.80;;;20.10;54.70;;;;;;4930928;28;88026;-69
2022/03/21 01:15:14;;;;;;;10.35;9.27;;;20.10;54.70;;;;;;4920047;28;88294;-68
2022/03/21 01:17:42;;;;;;;9.43;8.43;;;20.10;54.70;;;;;;4927750;28;87564;-68
2022/03/21 01:20:08;;;;;;;9.88;8.95;;;20.10;54.70;;;;;;4926849;28;90116;-69
2022/03/21 01:22:34;;;;;;;9.85;8.77;;;20.10;54.70;;;;;;4912958;28;88270;-69
2022/03/21 01:25:00;;;;;;;10.40;8.80;;;20.10;54.50;;;;;;4912620;28;88057;-71
2022/03/21 01:27:26;;;;;;;9.68;8.25;;;20.00;54.60;;;;;;4926136;28;88088;-70
2022/03/21 01:29:51;;;;;;;8.95;8.15;;;20.00;54.70;;;;;;4926975;28;89374;-68
2022/03/21 01:32:17;;;;;;;9.60;8.30;;;20.00;54.60;;;;;;4912244;28;87912;-68
2022/03/21 01:34:43;;;;;;;9.48;8.55;;;20.00;54.50;;;;;;4912640;28;87662;-70
2022/03/21 01:37:09;;;;;;;10.57;8.75;;;20.00;54.40;;;;;;4913289;28;87494;-70
2022/03/21 01:39:34;;;;;;;9.48;8.40;;;20.00;54.40;;;;;;4937383;28;90263;-71
2022/03/21 01:42:00;;;;;;;9.75;8.75;;;20.00;54.40;;;;;;4924425;28;88207;-70
2022/03/21 01:44:26;;;;;;;9.18;8.27;;;20.00;54.40;;;;;;4927245;28;91488;-70
2022/03/21 01:46:52;;;;;;;8.88;7.97;;;20.00;54.30;;;;;;4912870;28;87581;-69
2022/03/21 01:49:17;;;;;;;8.77;7.93;;;20.00;54.40;;;;;;4912725;28;87449;-69
2022/03/21 01:51:44;;;;;;;8.93;8.02;;;20.00;54.30;;;;;;4910317;28;91095;-69
2022/03/21 01:56:55;;;;;;;9.45;8.45;;;20.00;54.30;;;;;;4912972;28;88072;-69
2022/03/21 01:59:21;;;;;;;9.45;8.10;;;19.90;54.20;;;;;;4919652;28;89638;-70
2022/03/21 02:01:48;;;;;;;9.32;8.32;;;20.00;54.30;;;;;;4911473;28;91375;-69
2022/03/21 02:04:14;;;;;;;9.73;8.75;;;19.90;54.20;;;;;;4912139;28;88438;-69
2022/03/21 02:06:42;;;;;;;8.77;7.97;;;19.90;54.10;;;;;;4911406;28;87964;-73
2022/03/21 02:09:09;;;;;;;8.57;7.77;;;19.90;54.30;;;;;;4927789;28;89740;-72
2022/03/21 02:11:35;;;;;;;9.10;7.97;;;19.90;54.20;;;;;;4926548;28;91900;-69
2022/03/21 02:14:02;;;;;;;9.88;8.88;;;19.90;54.10;;;;;;4925749;28;90925;-69
2022/03/21 02:16:29;;;;;;;9.02;8.13;;;19.90;54.20;;;;;;4911764;28;88700;-72
2022/03/21 02:18:57;;;;;;;10.60;9.20;;;19.90;54.10;;;;;;4911368;28;87662;-68
2022/03/21 02:21:30;;;;;;;9.35;8.35;;;19.90;54.10;;;;;;4910986;28;87279;-69
2022/03/21 02:24:09;;;;;;;9.40;8.43;;;19.90;54.10;;;;;;4911261;28;87691;-72
2022/03/21 02:26:36;;;;;;;9.90;8.55;;;19.90;54.00;;;;;;4911476;28;87427;-70
2022/03/21 02:29:03;;;;;;;9.43;8.20;;;19.90;54.10;;;;;;4925964;28;90139;-69
2022/03/21 02:31:32;;;;;;;9.18;8.27;;;19.90;54.10;;;;;;4911389;28;88470;-69
2022/03/21 02:33:58;;;;;;;9.10;8.20;;;19.80;54.00;;;;;;4911863;28;88262;-71
2022/03/21 02:36:29;;;;;;;9.00;8.10;;;19.90;54.00;;;;;;4911991;28;86991;-68
2022/03/21 02:38:56;;;;;;;9.57;8.60;;;19.80;54.10;;;;;;4911832;28;87669;-69
2022/03/21 02:41:22;;;;;;;9.13;8.23;;;19.90;54.30;;;;;;4910868;28;88558;-69
2022/03/21 02:43:58;;;;;;;9.05;7.63;;;19.80;54.20;;;;;;4911833;28;89103;-69
2022/03/21 02:46:25;;;;;;;8.80;7.90;;;19.80;54.30;;;;;;4926235;28;87718;-71
2022/03/21 02:48:54;;;;;;;9.63;8.45;;;19.80;54.10;;;;;;4914511;28;87805;-69
2022/03/21 02:51:21;;;;;;;9.07;8.17;;;19.80;54.10;;;;;;4896793;28;90764;-68
2022/03/21 02:53:51;;;;;;;9.70;8.50;;;19.80;54.00;;;;;;4925516;28;91010;-71
2022/03/21 02:56:18;;;;;;;8.70;7.75;;;19.80;54.00;;;;;;4911329;28;87853;-70
2022/03/21 02:58:43;;;;;;;9.32;8.38;;;19.80;54.00;;;;;;4911462;28;86864;-71
2022/03/21 03:01:12;;;;;;;8.60;7.80;;;19.80;54.10;;;;;;4910849;28;87974;-70
2022/03/21 03:03:38;;;;;;;8.98;8.07;;;19.70;54.00;;;;;;4910752;28;88079;-69
2022/03/21 03:06:04;;;;;;;8.55;7.75;;;19.70;54.00;;;;;;4909984;28;90144;-69
2022/03/21 03:08:30;;;;;;;8.73;7.82;;;19.70;53.90;;;;;;4910883;28;87663;-71
2022/03/21 03:10:56;;;;;;;9.43;8.50;;;19.70;53.90;;;;;;4910600;28;88292;-69
2022/03/21 03:13:22;;;;;;;9.43;8.27;;;19.70;53.70;;;;;;4910888;28;87899;-71
2022/03/21 03:15:48;;;;;;;9.07;8.18;;;19.80;53.80;;;;;;4914724;28;87992;-68
2022/03/21 03:18:14;;;;;;;10.07;8.40;;;19.70;53.80;;;;;;4910714;28;87400;-69
2022/03/21 03:20:55;;;;;;;8.85;8.00;;;19.70;54.50;;;;;;4910022;28;89105;-68
2022/03/21 03:23:23;;;;;;;8.60;7.70;;;19.70;53.80;;;;;;4911141;28;87974;-68
2022/03/21 03:25:58;;;;;;;8.63;7.82;;;19.70;53.80;;;;;;4925361;28;86929;-69
2022/03/21 03:28:25;;;;;;;9.20;8.30;;;19.70;53.80;;;;;;4924984;28;90043;-68
2022/03/21 03:30:51;;;;;;;8.95;7.70;;;19.70;53.80;;;;;;4924351;28;89384;-68
2022/03/21 03:33:17;;;;;;;9.60;8.27;;;19.70;53.80;;;;;;4911127;28;87914;-69
2022/03/21 03:35:42;;;;;;;8.50;7.60;;;19.70;54.40;;;;;;4911552;28;87349;-69
2022/03/21 03:38:09;;;;;;;8.60;7.80;;;19.70;53.70;;;;;;4910701;28;88026;-68
2022/03/21 03:40:34;;;;;;;9.20;8.30;;;19.60;53.70;;;;;;4911225;28;87646;-68
2022/03/21 03:43:00;;;;;;;8.63;7.80;;;19.60;53.50;;;;;;4910179;28;87746;-68
2022/03/21 03:45:26;;;;;;;8.98;8.07;;;19.60;53.50;;;;;;4910337;28;87948;-71
2022/03/21 03:47:52;;;;;;;9.77;8.45;;;19.60;53.50;;;;;;4908097;28;88164;-71
2022/03/21 03:50:19;;;;;;;8.85;8.05;;;19.70;53.40;;;;;;4909417;28;87820;-72
2022/03/21 03:52:46;;;;;;;8.85;7.95;;;19.60;53.50;;;;;;4924650;28;89352;-69
2022/03/21 03:55:13;;;;;;;9.18;8.25;;;19.60;53.50;;;;;;4909587;28;88547;-69
2022/03/21 03:57:39;;;;;;;8.90;8.00;;;19.60;53.50;;;;;;4925241;28;89992;-69
2022/03/21 04:00:09;;;;;;;9.27;8.38;;;19.60;53.50;;;;;;4910948;28;87599;-70
2022/03/21 04:03:44;;;;;;;8.80;8.00;;;19.60;53.70;;;;;;4910919;28;87832;-71
2022/03/21 04:05:21;;;;;;;8.73;7.85;;;19.60;53.50;;;;;;4910389;28;86948;-69
2022/03/21 04:07:48;;;;;;;9.32;8.32;;;19.60;53.60;;;;;;4910285;28;87604;-69
2022/03/21 04:10:13;;;;;;;9.07;8.20;;;19.60;53.50;;;;;;4910664;28;88437;-71
2022/03/21 04:12:39;;;;;;;9.07;8.10;;;19.60;53.30;;;;;;4911080;28;87167;-69
2022/03/21 04:15:07;;;;;;;9.75;8.20;;;19.60;53.50;;;;;;4910191;28;88034;-70
2022/03/21 04:17:34;;;;;;;9.10;8.20;;;19.60;53.30;;;;;;4910321;28;87666;-69
2022/03/21 04:20:00;;;;;;;8.52;7.70;;;19.50;53.50;;;;;;4909483;28;88921;-68
2022/03/21 04:22:26;;;;;;;8.88;7.93;;;19.60;53.20;;;;;;4930703;28;90561;-69
2022/03/21 04:24:51;;;;;;;8.77;7.90;;;19.60;53.40;;;;;;4911004;28;87913;-71
2022/03/21 04:27:17;;;;;;;8.02;7.25;;;19.50;53.20;;;;;;4910802;28;88140;-71
2022/03/21 04:29:43;;;;;;;8.63;7.78;;;19.50;53.30;;;;;;4910132;28;87736;-69
2022/03/21 04:32:08;;;;;;;8.50;7.68;;;19.50;53.40;;;;;;4908915;28;90392;-69
2022/03/21 04:34:34;;;;;;;9.85;8.95;;;19.50;53.90;;;;;;4909596;28;87488;-70
2022/03/21 04:36:59;;;;;;;8.98;8.10;;;19.50;53.30;;;;;;4910691;28;86629;-71
2022/03/21 04:39:25;;;;;;;8.75;7.70;;;19.50;53.20;;;;;;4912234;28;88139;-70
2022/03/21 04:41:51;;;;;;;8.55;7.68;;;19.50;53.30;;;;;;4913188;28;87386;-69
2022/03/21 04:44:16;;;;;;;8.82;8.02;;;19.50;53.30;;;;;;4914927;28;88351;-69
2022/03/21 04:46:42;;;;;;;9.23;8.32;;;19.50;53.30;;;;;;4912116;28;87058;-69
2022/03/21 04:49:07;;;;;;;8.60;7.70;;;19.50;53.20;;;;;;4913366;28;88164;-68
2022/03/21 04:51:33;;;;;;;8.90;8.00;;;19.50;53.20;;;;;;4911396;28;90661;-69
2022/03/21 04:53:58;;;;;;;9.10;8.20;;;19.50;53.20;;;;;;4912010;28;88349;-68
2022/03/21 04:56:24;;;;;;;8.25;7.45;;;19.50;53.20;;;;;;4924470;28;87634;-69
2022/03/21 04:58:50;;;;;;;8.60;7.78;;;19.50;53.20;;;;;;4923778;28;88712;-71
2022/03/21 05:01:15;;;;;;;8.38;7.35;;;19.40;53.20;;;;;;4913790;28;87162;-68
2022/03/21 05:03:42;;;;;;;9.73;8.63;;;19.40;53.10;;;;;;4913049;28;87943;-71
2022/03/21 05:06:07;;;;;;;8.57;7.75;;;19.40;53.20;;;;;;4913103;28;88373;-69
2022/03/21 05:08:33;;;;;;;8.80;7.90;;;19.40;53.00;;;;;;4912150;28;89066;-68
2022/03/21 05:10:58;;;;;;;8.95;8.05;;;19.40;53.10;;;;;;4912847;28;88703;-68
2022/03/21 05:13:24;;;;;;;8.85;7.95;;;19.40;53.20;;;;;;4912667;28;87229;-68
2022/03/21 05:15:50;;;;;;;9.63;8.73;;;19.40;53.00;;;;;;4911676;28;88111;-69
2022/03/21 05:18:16;;;;;;;8.85;7.95;;;19.40;53.10;;;;;;4912080;28;88145;-69
2022/03/21 05:20:42;;;;;;;9.13;7.55;;;19.40;53.20;;;;;;4909699;28;90076;-70
2022/03/21 05:31:21;;;;;;;10.25;8.25;;;19.40;53.10;;;;;;4916988;28;87374;-70
2022/03/21 05:36:32;;;;;;;8.98;8.02;;;19.40;53.50;;;;;;4910621;28;87824;-69
2022/03/21 05:38:58;;;;;;;8.90;8.10;;;19.40;53.60;;;;;;4925377;28;90175;-70
2022/03/21 05:41:24;;;;;;;9.55;8.10;;;19.40;53.70;;;;;;4911172;28;88383;-69
2022/03/21 05:43:50;;;;;;;9.85;8.85;;;19.40;53.70;;;;;;4917543;28;88117;-70
2022/03/21 05:46:15;;;;;;;9.55;8.55;;;19.40;53.80;;;;;;4929753;28;87950;-71
2022/03/21 05:48:59;;;;;;;10.65;8.43;;;19.40;53.80;;;;;;4912732;28;87647;-70
2022/03/21 05:51:36;;;;;;;10.55;8.85;;;19.40;53.60;;;;;;4912568;28;86569;-70
2022/03/21 05:54:05;;;;;;;10.00;9.00;;;19.40;53.70;;;;;;4912441;28;87466;-69
2022/03/21 05:56:31;;;;;;;;;;;19.40;53.60;;;;;;4911821;28;87502;-70
2022/03/21 05:59:00;;;;;;;10.50;8.63;;;19.40;53.60;;;;;;4912187;28;89111;-69
2022/03/21 06:01:25;;;;;;;11.02;8.32;;;19.40;53.80;;;;;;4913478;28;88325;-70
2022/03/21 06:03:55;;;;;;;9.02;8.13;;;19.40;53.60;;;;;;4922085;28;88041;-69
2022/03/21 06:06:22;;;;;;;12.18;8.50;;;19.40;53.80;;;;;;4912017;28;87736;-71
2022/03/21 06:08:49;;;;;;;9.40;8.50;;;19.40;53.80;;;;;;4926039;28;91297;-70
2022/03/21 06:11:14;;;;;;;9.32;8.43;;;19.40;54.00;;;;;;4911740;28;88128;-70
2022/03/21 06:13:42;;;;;;;9.55;8.50;;;19.30;54.20;;;;;;4912665;28;87028;-70
2022/03/21 06:16:08;;;;;;;9.65;8.48;;;19.40;54.30;;;;;;4912478;28;87234;-69
2022/03/21 06:18:37;;;;;;;10.27;9.25;;;19.40;54.30;;;;;;4911738;28;88800;-70
2022/03/21 06:21:05;;;;;;;10.68;8.70;;;19.30;54.10;;;;;;4912738;28;88133;-70
2022/03/21 06:23:31;;;;;;;8.60;7.70;;;19.40;54.20;;;;;;4913084;28;88342;-71
2022/03/21 06:25:58;;;;;;;9.48;8.07;;;19.30;54.10;;;;;;4913812;28;87931;-70
2022/03/21 06:28:26;;;;;;;8.77;6.75;;;19.40;54.30;;;;;;4917903;28;88657;-69
2022/03/21 06:30:53;;;;;;;8.85;6.57;;;19.30;51.80;;;;;;4930394;28;90406;-70
2022/03/21 06:33:21;;;;;;;8.35;7.35;;;19.40;51.60;;;;;;4925626;28;88020;-69
2022/03/21 06:35:48;;;;;;;9.47;7.50;;;19.40;51.70;;;;;;4912492;28;87799;-69
2022/03/21 06:38:14;;;;;;;9.48;7.75;;;19.40;51.70;;;;;;4910743;28;87648;-71
2022/03/21 06:40:42;;;;;;;9.27;8.20;;;19.30;51.90;;;;;;4911407;28;86967;-70
2022/03/21 06:43:08;;;;;;;9.30;7.85;;;19.40;51.80;;;;;;4910593;28;88212;-69
2022/03/21 06:45:33;;;;;;;8.90;6.95;;;19.40;51.60;;;;;;4917274;28;87892;-70
2022/03/21 06:47:59;;;;;;;8.32;7.13;;;19.40;51.50;;;;;;4910374;28;89109;-71
2022/03/21 06:50:25;;;;;;;8.77;7.72;;;19.40;51.50;;;;;;4911295;28;89199;-70
2022/03/21 06:52:52;;;;;;;9.35;7.70;;;19.40;51.50;;;;;;4911335;28;87459;-69
2022/03/21 06:55:19;;;;;;;8.38;7.25;;;19.40;51.40;;;;;;4909674;28;89810;-69
2022/03/21 06:57:45;;;;;;;9.35;7.47;;;19.40;51.20;;;;;;4911356;28;87922;-69
2022/03/21 07:00:13;;;;;;;8.98;6.93;;;19.40;51.00;;;;;;4910885;28;87945;-69
2022/03/21 07:02:40;;;;;;;8.00;7.13;;;19.40;51.10;;;;;;4929600;28;87107;-69
2022/03/21 07:05:07;;;;;;;8.70;7.80;;;19.50;51.10;;;;;;4916742;28;87135;-70
2022/03/21 07:07:34;;;;;;;8.57;7.47;;;19.40;51.00;;;;;;4910385;28;88133;-69
2022/03/21 07:10:00;;;;;;;10.55;7.20;;;19.50;51.20;;;;;;4910674;28;88199;-69
2022/03/21 07:12:26;;;;;;;11.40;7.45;;;19.40;51.00;;;;;;4910364;28;88719;-68
2022/03/21 07:14:52;;;;;;;9.75;7.63;;;19.50;51.10;;;;;;4932248;28;90768;-69
2022/03/21 07:17:21;;;;;;;9.52;7.05;;;19.50;51.10;;;;;;4910706;28;88186;-68
2022/03/21 07:19:47;;;;;;;9.93;7.68;;;19.50;50.90;;;;;;4937172;28;91383;-67
2022/03/21 07:22:14;;;;;;;11.20;7.50;;;19.50;50.90;;;;;;4912174;28;87435;-69
2022/03/21 07:24:40;;;;;;;20.02;8.30;;;19.50;50.90;;;;;;4910302;28;87712;-69
2022/03/21 07:27:06;;;;;;;21.90;8.55;;;19.50;50.90;;;;;;4909396;28;88131;-71
2022/03/21 07:29:31;;;;;;;21.15;8.63;;;19.50;51.00;;;;;;4910559;28;87803;-71
2022/03/21 07:31:57;;;;;;;20.23;9.07;;;19.50;50.90;;;;;;4910308;28;87674;-68
2022/03/21 07:34:23;;;;;;;26.50;9.60;;;19.50;50.70;;;;;;4911705;28;87849;-71
2022/03/21 07:36:50;;;;;;;13.30;7.50;;;19.50;50.80;;;;;;4915355;28;89633;-68
2022/03/21 07:39:16;;;;;;;15.68;8.90;;;19.50;51.20;;;;;;4918518;28;88275;-70
2022/03/21 07:41:41;;;;;;;16.40;9.07;;;19.60;51.30;;;;;;4911587;28;87719;-68
2022/03/21 07:44:08;;;;;;;12.55;7.95;;;19.50;51.40;;;;;;4925800;28;87828;-68
2022/03/21 07:49:17;;;;;;;16.85;8.25;;;19.60;51.30;;;;;;4910138;28;87661;-68
2022/03/21 07:51:43;;;;;;;16.00;8.88;;;19.60;51.40;;;;;;4910378;28;87543;-68
2022/03/21 07:54:10;;;;;;;23.05;9.77;;;19.60;51.80;;;;;;4910454;28;87825;-68
2022/03/21 07:56:37;;;;;;;21.52;9.27;;;19.60;51.90;;;;;;4914676;28;87799;-68
2022/03/21 07:59:03;;;;;;;18.83;8.82;;;19.60;52.10;;;;;;4932372;28;88940;-68
2022/03/21 08:01:30;;;;;;;17.98;9.85;;;19.60;52.30;;;;;;4916588;28;89082;-68
2022/03/21 08:04:00;;;;;;;15.93;9.70;;;19.60;52.70;;;;;;4938158;28;90071;-68
2022/03/21 08:06:26;;;;;;;20.08;9.48;;;19.60;53.00;;;;;;4930840;28;90722;-67
2022/03/21 08:08:53;;;;;;;16.35;9.55;;;19.70;53.40;;;;;;4911459;28;87754;-67
2022/03/21 08:11:20;;;;;;;21.05;10.00;;;19.70;53.50;;;;;;4916308;28;88086;-67
2022/03/21 08:13:49;;;;;;;28.98;10.07;;;19.70;53.60;;;;;;4912767;28;86864;-67
2022/03/21 08:16:19;;;;;;;21.35;9.50;;;19.70;53.90;;;;;;4922205;28;87813;-68
2022/03/21 08:18:49;;;;;;;27.40;10.85;;;19.70;54.20;;;;;;4913542;28;87278;-68
2022/03/21 08:21:14;;;;;;;;;;;19.70;54.00;;;;;;4914035;28;87535;-66
2022/03/21 08:23:41;;;;;;;21.52;9.60;;;19.70;53.90;;;;;;4917530;28;87887;-67
2022/03/21 08:26:13;;;;;;;23.38;10.40;;;19.70;54.20;;;;;;4920509;28;91265;-68
2022/03/21 08:28:38;;;;;;;24.88;10.35;;;19.70;53.90;;;;;;4920396;28;88788;-67
2022/03/21 08:31:04;;;;;;;18.10;9.20;;;19.70;54.20;;;;;;4913131;28;88098;-68
2022/03/21 08:33:30;;;;;;;26.77;11.02;;;19.70;54.20;;;;;;4927072;28;87519;-66
2022/03/21 08:35:55;;;;;;;27.23;11.15;;;19.70;54.60;;;;;;4923601;28;88160;-68
2022/03/21 08:38:21;;;;;;;23.35;10.27;;;19.70;54.60;;;;;;4922855;28;88459;-67
2022/03/21 08:40:47;;;;;;;26.30;10.80;;;19.70;54.30;;;;;;4926025;28;87223;-67
2022/03/21 08:43:12;;;;;;;25.55;10.80;;;19.70;54.30;;;;;;4909858;28;89757;-70
2022/03/21 08:45:40;;;;;;;19.88;10.57;;;19.80;54.30;;;;;;4911416;28;88433;-68
2022/03/21 08:48:05;;;;;;;25.73;10.82;;;19.70;54.10;;;;;;4919056;28;88137;-70
2022/03/21 08:50:33;;;;;;;35.92;10.88;;;19.70;54.00;;;;;;4914838;28;87968;-68
2022/03/21 08:52:58;;;;;;;21.05;10.57;;;19.70;54.00;;;;;;4912727;28;87328;-67
2022/03/21 08:55:24;;;;;;;24.23;11.10;;;19.70;54.20;;;;;;4916205;28;88081;-67
2022/03/21 08:57:51;;;;;;;23.02;11.85;;;19.70;54.10;;;;;;4927653;28;87431;-67
2022/03/21 09:00:17;;;;;;;23.48;10.50;;;19.70;54.00;;;;;;4921822;28;87912;-69
2022/03/21 09:02:46;;;;;;;23.65;10.70;;;19.70;54.00;;;;;;4912116;28;87658;-67
2022/03/21 09:05:14;;;;;;;22.83;10.02;;;19.80;54.10;;;;;;4911322;28;87745;-69
2022/03/21 09:07:40;;;;;;;26.60;10.88;;;19.70;54.20;;;;;;4911194;28;90774;-71
2022/03/21 09:10:07;;;;;;;21.63;10.32;;;19.70;54.20;;;;;;4910736;28;87520;-67
2022/03/21 09:12:34;;;;;;;22.25;10.50;;;19.70;54.20;;;;;;4922281;28;89379;-66
2022/03/21 09:14:59;;;;;;;23.65;10.52;;;19.70;54.40;;;;;;4903744;28;91956;-67
2022/03/21 09:17:26;;;;;;;19.30;9.15;;;19.70;54.50;;;;;;4912572;28;88842;-67
2022/03/21 09:19:52;;;;;;;23.33;9.75;;;19.70;54.40;;;;;;4927179;28;87621;-67
2022/03/21 09:22:18;;;;;;;21.75;10.05;;;19.70;54.30;;;;;;4927427;28;88970;-68
2022/03/21 09:24:43;;;;;;;22.95;10.70;;;19.70;54.40;;;;;;4917179;28;87542;-67
2022/03/21 09:27:10;;;;;;;24.40;10.38;;;19.70;54.30;;;;;;4920899;28;87906;-67
2022/03/21 09:29:37;;;;;;;21.10;10.15;;;19.70;54.40;;;;;;4909332;28;86889;-67
2022/03/21 09:32:02;;;;;;;20.02;10.18;;;19.70;54.30;;;;;;4910981;28;86923;-67
2022/03/21 09:34:28;;;;;;;22.33;9.73;;;19.70;54.50;;;;;;4909405;28;92242;-67
2022/03/21 09:36:54;;;;;;;19.80;9.63;;;19.70;54.20;;;;;;4926151;28;90562;-68
2022/03/21 09:39:20;;;;;;;21.27;10.20;;;19.80;54.40;;;;;;4912453;28;88493;-70
2022/03/21 09:41:47;;;;;;;23.83;10.10;;;19.70;54.40;;;;;;4912106;28;87795;-67
2022/03/21 09:44:13;;;;;;;18.13;9.43;;;19.70;54.10;;;;;;4911008;28;88547;-66
2022/03/21 09:46:41;;;;;;;20.55;10.38;;;19.80;54.20;;;;;;4911498;28;88063;-70
2022/03/21 09:49:10;;;;;;;20.85;9.77;;;19.80;54.60;;;;;;4911882;28;87193;-67
2022/03/21 09:51:36;;;;;;;18.90;9.18;;;19.80;54.70;;;;;;4926843;28;91540;-67
2022/03/21 09:54:03;;;;;;;20.17;10.48;;;19.80;54.60;;;;;;4926921;28;89786;-70
2022/03/21 09:56:29;;;;;;;17.27;9.15;;;19.80;54.80;;;;;;4911767;28;87269;-70
2022/03/21 09:59:01;;;;;;;20.85;9.85;;;19.80;54.70;;;;;;4912472;28;87227;-67
2022/03/21 10:01:32;;;;;;;19.40;9.82;;;19.70;54.60;;;;;;4928880;28;90479;-67
2022/03/21 10:03:59;;;;;;;16.60;9.23;;;19.80;54.70;;;;;;4925642;28;91669;-67
2022/03/21 10:06:36;;;;;;;20.83;9.30;;;19.80;54.60;;;;;;4911288;28;88801;-67
2022/03/21 10:09:05;;;;;;;20.92;9.85;;;19.80;54.70;;;;;;4912650;28;87198;-67
2022/03/21 10:11:31;;;;;;;16.85;9.32;;;19.80;54.80;;;;;;4911691;28;87705;-67
2022/03/21 10:13:56;;;;;;;19.10;9.52;;;19.70;54.50;;;;;;4912340;28;88258;-67
2022/03/21 10:16:22;;;;;;;20.98;9.65;;;19.80;54.60;;;;;;4912307;28;87867;-69
2022/03/21 10:18:53;;;;;;;19.73;9.00;;;19.80;54.30;;;;;;4912261;28;87523;-69
2022/03/21 10:21:21;;;;;;;18.02;8.88;;;19.80;54.70;;;;;;4912119;28;87220;-68
2022/03/21 10:24:15;;;;;;;13.82;8.73;;;19.80;54.60;;;;;;4935946;28;92324;-68
2022/03/21 10:26:44;;;;;;;14.43;9.30;;;19.80;54.50;;;;;;4909879;28;88719;-68
2022/03/21 10:29:11;;;;;;;14.95;9.23;;;19.80;54.60;;;;;;4926353;28;89913;-70
2022/03/21 10:31:38;;;;;;;14.55;9.05;;;19.80;54.60;;;;;;4911202;28;87031;-68
2022/03/21 10:34:07;;;;;;;16.58;9.13;;;19.80;54.70;;;;;;4910090;28;88464;-69
2022/03/21 10:36:32;;;;;;;16.60;8.63;;;19.80;54.70;;;;;;4926003;28;90933;-69
2022/03/21 10:39:09;;;;;;;13.95;9.27;;;19.70;54.20;;;;;;4917297;28;87814;-69
2022/03/21 10:41:37;;;;;;;12.43;8.05;;;19.80;54.20;;;;;;4927706;28;89092;-67
2022/03/21 10:44:04;;;;;;;;;;;19.80;54.30;;;;;;4911034;28;87904;-69
2022/03/21 10:46:30;;;;;;;13.65;8.13;;;19.80;54.40;;;;;;4912052;28;87015;-71
2022/03/21 10:49:07;;;;;;;15.13;8.20;;;19.80;54.40;;;;;;4911271;28;87612;-69
2022/03/21 10:51:46;;;;;;;15.13;8.40;;;19.80;54.10;;;;;;4926212;28;89879;-68
2022/03/21 10:54:39;;;;;;;18.92;10.05;;;19.80;54.10;;;;;;4910790;28;89403;-68
2022/03/21 10:57:07;;;;;;;13.35;8.23;;;19.80;54.10;;;;;;4904984;28;89221;-71
2022/03/21 10:59:33;;;;;;;13.23;8.00;;;19.80;54.20;;;;;;4919286;28;87547;-68
2022/03/21 11:02:17;;;;;;;15.80;8.35;;;19.80;53.90;;;;;;4922630;28;88331;-70
2022/03/21 11:04:44;;;;;;;15.60;8.80;;;19.80;53.50;;;;;;4908000;28;89454;-67
2022/03/21 11:07:11;;;;;;;15.50;8.75;;;19.80;54.10;;;;;;4917292;28;88282;-67
2022/03/21 11:09:41;;;;;;;15.10;8.30;;;19.80;54.00;;;;;;4922658;28;87306;-67
2022/03/21 11:12:09;;;;;;;15.10;8.50;;;19.80;54.10;;;;;;4911486;28;87633;-68
2022/03/21 11:14:39;;;;;;;15.15;8.02;;;19.80;53.50;;;;;;4924061;28;89585;-69
2022/03/21 11:17:10;;;;;;;17.83;8.35;;;19.80;54.40;;;;;;4927945;28;90613;-68
2022/03/21 11:19:36;;;;;;;11.55;7.72;;;19.80;54.70;;;;;;4912281;28;88822;-69
2022/03/21 11:22:03;;;;;;;13.70;8.05;;;19.80;54.80;;;;;;4910065;28;87717;-68
2022/03/21 11:24:31;;;;;;;14.23;8.63;;;19.80;55.00;;;;;;4911279;28;88392;-68
2022/03/21 11:27:31;;;;;;;16.15;8.40;;;19.80;55.30;;;;;;4909215;28;90662;-69
2022/03/21 11:30:18;;;;;;;13.07;7.68;;;19.80;55.10;;;;;;4911516;28;87705;-68
2022/03/21 11:33:10;;;;;;;13.07;7.90;;;19.80;54.90;;;;;;4910364;28;87430;-68
2022/03/21 11:35:40;;;;;;;14.07;8.13;;;19.80;54.90;;;;;;4911049;28;88307;-68
2022/03/21 11:38:27;;;;;;;17.35;8.75;;;19.80;55.00;;;;;;4916524;28;87421;-66
2022/03/21 11:41:10;;;;;;;16.63;8.25;;;19.90;54.20;;;;;;4909448;28;87922;-71
2022/03/21 11:43:37;;;;;;;15.73;8.57;;;19.90;55.30;;;;;;4915484;28;88276;-70
2022/03/21 11:46:25;;;;;;;19.00;8.02;;;19.90;54.70;;;;;;4910320;28;91812;-66
2022/03/21 11:48:53;;;;;;;14.82;7.70;;;20.00;55.00;;;;;;4927101;28;89923;-68
2022/03/21 11:51:18;;;;;;;14.38;7.97;;;20.00;54.50;;;;;;4902408;28;87839;-69
2022/03/21 11:53:49;;;;;;;11.45;7.63;;;20.00;54.60;;;;;;4913044;28;87854;-69
2022/03/21 11:56:41;;;;;;;13.18;7.00;;;20.00;54.70;;;;;;4911348;28;88860;-67
2022/03/21 11:59:07;;;;;;;10.32;7.70;;;20.00;54.40;;;;;;4921200;28;87923;-69
2022/03/21 12:01:34;;;;;;;14.45;8.05;;;20.00;54.30;;;;;;4924172;28;87609;-66
2022/03/21 12:04:24;;;;;;;13.25;7.22;;;20.00;54.50;;;;;;4913311;28;87607;-65
2022/03/21 12:06:50;;;;;;;14.65;7.18;;;20.00;54.70;;;;;;4917597;28;98289;-69
2022/03/21 12:09:16;;;;;;;13.95;7.88;;;20.00;54.30;;;;;;4920404;28;89931;-66
2022/03/21 12:11:43;;;;;;;12.57;7.32;;;20.00;54.20;;;;;;4920355;28;90046;-66
2022/03/21 12:14:47;;;;;;;12.77;7.85;;;20.00;54.10;;;;;;4916167;28;88452;-66
2022/03/21 12:17:13;;;;;;;11.15;7.95;;;20.00;54.30;;;;;;4870976;28;89078;-66
2022/03/21 12:19:45;;;;;;;14.15;7.38;;;20.00;54.70;;;;;;4871962;28;88462;-70
2022/03/21 12:22:43;;;;;;;12.82;7.72;;;20.00;55.00;;;;;;4891763;28;87382;-66
2022/03/21 12:25:13;;;;;;;10.55;7.40;;;20.00;54.60;;;;;;4919472;28;87609;-66
2022/03/21 12:27:53;;;;;;;12.95;7.45;;;20.00;55.10;;;;;;4921506;28;88026;-65
2022/03/21 12:30:23;;;;;;;13.05;7.53;;;20.00;55.10;;;;;;4915797;28;87912;-66
2022/03/21 12:32:51;;;;;;;13.63;7.85;;;20.00;55.20;;;;;;4918297;28;88030;-65
2022/03/21 12:35:31;;;;;;;14.88;7.40;;;20.00;55.30;;;;;;4919196;28;86958;-67
2022/03/21 12:38:06;;;;;;;12.18;7.00;;;20.00;55.60;;;;;;4925827;28;89318;-69
2022/03/21 12:40:34;;;;;;;11.40;7.05;;;20.00;53.90;;;;;;4920560;28;88414;-67
2022/03/21 12:43:00;;;;;;;10.35;7.28;;;20.10;54.70;;;;;;4918841;28;88063;-69
2022/03/21 12:45:29;;;;;;;12.48;6.40;;;20.00;54.60;;;;;;4918488;28;87786;-70
2022/03/21 12:48:00;;;;;;;13.37;7.10;;;20.10;54.70;;;;;;4922469;28;91410;-66
2022/03/21 12:50:27;;;;;;;10.90;7.28;;;20.10;54.40;;;;;;4919452;28;87667;-66
2022/03/21 12:53:02;;;;;;;12.63;7.00;;;20.10;54.50;;;;;;4917059;28;87662;-70
2022/03/21 12:55:28;;;;;;;10.95;6.63;;;20.10;54.80;;;;;;4916533;28;86374;-68
2022/03/21 12:57:59;;;;;;;14.57;7.40;;;20.10;54.80;;;;;;4915194;28;88097;-66
2022/03/21 13:00:27;;;;;;;11.27;6.70;;;20.10;55.00;;;;;;4912032;28;90029;-67
2022/03/21 13:02:56;;;;;;;10.95;6.45;;;20.10;55.20;;;;;;4923162;28;88601;-74